createdAt,value
2024-01-05T00:03:00.746Z,98742.53
2024-01-05T00:08:03.175Z,98620.31
2024-01-05T00:13:04.820Z,98728.19
2024-01-05T00:18:07.695Z,98569.91
2024-01-05T00:23:09.480Z,98576.09
2024-01-05T00:28:11.181Z,98617.06
2024-01-05T00:33:13.035Z,98669.84
2024-01-05T00:38:14.757Z,98613.16
2024-01-05T00:43:16.430Z,98625.28
2024-01-05T00:48:18.249Z,98477.56
2024-01-05T00:53:20.094Z,98533.72
2024-01-05T00:58:21.916Z,98610.56
2024-01-05T01:03:23.657Z,98692.81
2024-01-05T01:08:25.317Z,98608.38
2024-01-05T01:13:26.934Z,98621.16
2024-01-05T01:18:29.020Z,98634.91
2024-01-05T01:23:30.873Z,98614.06
2024-01-05T01:28:32.516Z,98590.16
2024-01-05T01:33:34.356Z,98603.72
2024-01-05T01:38:36.188Z,98644.28
2024-01-05T01:43:37.890Z,98609.03
2024-01-05T01:48:41.872Z,98536.88
2024-01-05T01:53:45.090Z,98514.84
2024-01-05T01:58:47.284Z,98492.72
2024-01-05T02:03:49.455Z,98591.19
2024-01-05T02:08:52.369Z,98599.81
2024-01-05T02:13:54.179Z,98539.69
2024-01-05T02:18:56.654Z,98687.63
2024-01-05T02:23:58.558Z,98585.22
2024-01-05T02:29:03.901Z,98572.66
2024-01-05T02:34:05.589Z,98492.50
2024-01-05T02:39:07.282Z,98489.16
2024-01-05T02:44:08.980Z,98423.69
2024-01-05T02:49:10.792Z,98484.72
2024-01-05T02:54:12.542Z,98364.75
2024-01-05T02:59:15.186Z,98535.22
2024-01-05T03:04:16.980Z,98522.00
2024-01-05T03:09:18.807Z,98389.94
2024-01-05T03:14:20.535Z,98365.28
2024-01-05T03:19:22.286Z,98360.50
2024-01-05T03:24:24.211Z,98394.94
2024-01-05T03:29:26.014Z,98415.81
2024-01-05T03:34:29.528Z,98411.59
2024-01-05T03:39:31.360Z,98441.03
2024-01-05T03:44:33.056Z,98488.47
2024-01-05T03:49:35.036Z,98492.81
2024-01-05T03:54:36.865Z,98408.03
2024-01-05T03:59:38.549Z,98457.16
2024-01-05T04:04:41.096Z,98356.16
2024-01-05T04:09:42.839Z,98330.19
2024-01-05T04:14:46.370Z,98486.97
2024-01-05T04:19:48.699Z,98415.59
2024-01-05T04:24:50.556Z,98336.78
2024-01-05T04:29:52.244Z,98413.84
2024-01-05T04:34:53.926Z,98533.69
2024-01-05T04:39:55.632Z,98393.13
2024-01-05T04:44:57.401Z,98357.47
2024-01-05T04:49:59.134Z,98216.50
2024-01-05T04:55:00.802Z,98346.06
2024-01-05T05:00:02.469Z,98217.69
2024-01-05T05:05:04.380Z,98207.91
2024-01-05T05:10:06.543Z,98196.34
2024-01-05T05:15:09.413Z,98352.13
2024-01-05T05:20:11.719Z,98200.66
2024-01-05T05:25:13.435Z,98193.47
2024-01-05T05:30:15.414Z,98299.31
2024-01-05T05:35:17.254Z,98282.66
2024-01-05T05:40:19.046Z,98300.06
2024-01-05T05:45:20.746Z,98308.72
2024-01-05T05:50:22.433Z,98347.22
2024-01-05T05:55:24.056Z,98283.59
2024-01-05T06:00:26.337Z,98341.25
2024-01-05T06:05:28.101Z,98414.81
2024-01-05T06:10:29.759Z,98263.25
2024-01-05T06:15:31.543Z,98278.22
2024-01-05T06:20:33.279Z,98400.25
2024-01-05T06:25:34.908Z,98307.81
2024-01-05T06:30:36.669Z,98326.69
2024-01-05T06:35:38.362Z,98292.19
2024-01-05T06:40:40.029Z,98371.41
2024-01-05T06:45:41.729Z,98275.34
2024-01-05T06:50:43.458Z,98263.78
2024-01-05T06:55:45.193Z,98378.19
2024-01-05T07:00:46.936Z,98278.81
2024-01-05T07:05:49.836Z,98489.56
2024-01-05T07:10:51.534Z,98338.81
2024-01-05T07:15:53.202Z,98347.69
2024-01-05T07:20:54.960Z,98353.34
2024-01-05T07:26:01.323Z,98296.50
2024-01-05T07:31:06.873Z,98380.47
2024-01-05T07:36:09.297Z,98394.94
2024-01-05T07:41:19.313Z,98358.28
2024-01-05T07:46:21.113Z,98435.31
2024-01-05T07:51:23.545Z,98344.78
2024-01-05T07:56:25.268Z,98356.94
2024-01-05T08:01:27.109Z,98449.50
2024-01-05T08:06:28.879Z,98395.91
2024-01-05T08:11:30.694Z,98388.41
2024-01-05T08:16:32.394Z,98330.00
2024-01-05T08:21:34.168Z,98257.34
2024-01-05T08:26:35.973Z,98306.22
2024-01-05T08:31:37.602Z,98112.72
2024-01-05T08:36:39.321Z,98139.03
2024-01-05T08:41:43.579Z,98188.63
2024-01-05T08:46:45.424Z,98144.63
2024-01-05T08:51:47.195Z,98301.50
2024-01-05T08:56:48.878Z,98399.25
2024-01-05T09:01:50.596Z,98163.19
2024-01-05T09:06:52.630Z,98379.19
2024-01-05T09:11:54.322Z,98391.94
2024-01-05T09:16:56.868Z,98312.88
2024-01-05T09:22:00.661Z,98184.03
2024-01-05T09:27:03.670Z,98394.38
2024-01-05T09:32:05.847Z,98301.56
2024-01-05T09:37:07.487Z,98338.63
2024-01-05T09:42:10.089Z,98344.47
2024-01-05T09:47:12.329Z,98345.97
2024-01-05T09:52:15.079Z,98340.69
2024-01-05T09:57:19.103Z,98467.34
2024-01-05T10:02:52.193Z,98334.56
2024-01-05T10:07:53.963Z,98507.63
2024-01-05T10:13:06.220Z,98365.53
2024-01-05T10:18:23.160Z,98471.25
2024-01-05T10:23:27.163Z,98437.13
2024-01-05T10:28:38.975Z,98352.25
2024-01-05T10:33:54.789Z,98407.38
2024-01-05T10:38:58.155Z,98405.63
2024-01-05T10:43:59.998Z,98379.56
2024-01-05T10:49:01.843Z,98400.84
2024-01-05T10:54:03.956Z,98460.75
2024-01-05T10:59:05.597Z,98453.31
2024-01-05T11:06:13.672Z,98314.47
2024-01-05T11:11:34.975Z,98433.78
2024-01-05T11:16:45.544Z,98295.75
2024-01-05T11:21:55.783Z,98337.88
2024-01-05T11:26:57.478Z,98301.41
2024-01-05T11:31:59.127Z,98346.97
2024-01-05T11:37:02.067Z,98278.28
2024-01-05T11:42:04.389Z,98335.09
2024-01-05T11:47:06.178Z,98447.59
2024-01-05T11:52:09.025Z,98342.91
2024-01-05T11:57:10.650Z,98395.13
2024-01-05T12:02:18.634Z,98352.56
2024-01-05T12:07:21.964Z,98345.38
2024-01-05T12:12:24.599Z,98351.84
2024-01-05T12:17:26.264Z,98500.97
2024-01-05T12:22:27.957Z,98423.22
2024-01-05T12:27:40.117Z,98330.22
2024-01-05T12:32:42.505Z,98396.16
2024-01-05T12:37:52.316Z,98355.16
2024-01-05T12:42:54.728Z,98266.09
2024-01-05T12:47:56.379Z,98319.41
2024-01-05T12:52:57.978Z,98436.13
2024-01-05T12:58:06.556Z,98415.47
2024-01-05T13:03:17.522Z,98451.19
2024-01-05T13:08:19.179Z,98422.47
2024-01-05T13:13:20.870Z,98425.38
2024-01-05T13:18:22.523Z,98511.38
2024-01-05T13:23:27.831Z,98485.97
2024-01-05T13:28:30.225Z,98491.97
2024-01-05T13:33:33.020Z,98495.81
2024-01-05T13:38:34.778Z,98403.59
2024-01-05T13:43:36.649Z,98409.94
2024-01-05T13:48:38.577Z,98459.97
2024-01-05T13:53:40.246Z,98435.84
2024-01-05T13:58:41.895Z,98429.97
2024-01-05T14:03:43.996Z,98410.81
2024-01-05T14:08:45.596Z,98457.75
2024-01-05T14:13:47.146Z,98491.16
2024-01-05T14:18:51.395Z,98430.25
2024-01-05T14:23:53.496Z,98397.84
2024-01-05T14:28:55.797Z,98469.66
2024-01-05T14:33:58.839Z,98499.31
2024-01-05T14:39:00.926Z,98499.47
2024-01-05T14:44:02.598Z,98497.41
2024-01-05T14:49:06.354Z,98519.44
2024-01-05T14:54:08.188Z,98468.00
2024-01-05T14:59:09.787Z,98460.00
2024-01-05T15:04:11.499Z,98466.88
2024-01-05T15:09:13.511Z,98445.28
2024-01-05T15:14:15.200Z,98478.59
2024-01-05T15:19:17.806Z,98474.09
2024-01-05T15:24:19.552Z,98470.09
2024-01-05T15:29:22.173Z,98430.84
2024-01-05T15:34:23.868Z,98396.81
2024-01-05T15:39:25.558Z,98505.38
2024-01-05T15:44:27.290Z,98543.13
2024-01-05T15:49:29.007Z,98388.06
2024-01-05T15:54:30.888Z,98323.78
2024-01-05T15:59:34.068Z,98329.22
2024-01-05T16:04:36.298Z,98475.47
2024-01-05T16:09:38.112Z,98363.72
2024-01-05T16:14:48.244Z,98494.56
2024-01-05T16:19:50.056Z,98507.47
2024-01-05T16:24:51.686Z,98411.00
2024-01-05T16:29:53.341Z,98392.25
2024-01-05T16:34:55.076Z,98532.00
2024-01-05T16:39:56.755Z,98423.06
2024-01-05T16:44:58.410Z,98471.13
2024-01-05T16:50:00.302Z,98396.78
2024-01-05T16:55:02.402Z,98492.94
2024-01-05T17:00:06.061Z,98519.84
2024-01-05T17:05:07.969Z,98447.66
2024-01-05T17:10:09.678Z,98505.06
2024-01-05T17:15:11.483Z,98514.34
2024-01-05T17:20:21.814Z,98403.22
2024-01-05T17:25:27.090Z,98445.28
2024-01-05T17:30:28.771Z,98510.50
2024-01-05T17:35:30.430Z,98481.16
2024-01-05T17:40:32.014Z,98537.13
2024-01-05T17:45:33.603Z,98558.25
2024-01-05T17:50:35.286Z,98603.34
2024-01-05T17:55:36.923Z,98578.06
2024-01-05T18:00:38.718Z,98528.91
2024-01-05T18:05:40.359Z,98520.59
2024-01-05T18:10:42.236Z,98479.13
2024-01-05T18:15:43.893Z,98535.97
2024-01-05T18:20:45.528Z,98584.38
2024-01-05T18:25:47.340Z,98478.19
2024-01-05T18:30:50.031Z,98548.56
2024-01-05T18:35:51.842Z,98544.91
2024-01-05T18:40:53.522Z,98411.91
2024-01-05T18:45:55.235Z,98398.06
2024-01-05T18:50:56.912Z,98532.00
2024-01-05T18:55:58.827Z,98537.28
2024-01-05T19:01:00.573Z,98520.22
2024-01-05T19:06:02.380Z,98569.59
2024-01-05T19:11:04.976Z,98584.97
2024-01-05T19:16:09.834Z,98582.41
2024-01-05T19:21:11.532Z,98591.69
2024-01-05T19:26:22.748Z,98482.94
2024-01-05T19:31:24.517Z,98497.84
2024-01-05T19:36:26.170Z,98484.75
2024-01-05T19:41:27.740Z,98533.63
2024-01-05T19:46:30.199Z,98525.84
2024-01-05T19:51:32.111Z,98797.50
2024-01-05T19:56:33.733Z,98503.72
2024-01-05T20:01:37.298Z,98638.53
2024-01-05T20:06:39.735Z,98649.03
2024-01-05T20:11:41.970Z,98712.63
2024-01-05T20:16:44.364Z,98591.97
2024-01-05T20:21:47.142Z,98567.94
2024-01-05T20:26:51.940Z,98688.19
2024-01-05T20:31:55.301Z,98689.50
2024-01-05T20:36:57.137Z,98603.56
2024-01-05T20:41:58.756Z,98628.59
2024-01-05T20:47:00.370Z,98594.66
2024-01-05T20:52:01.967Z,98617.63
2024-01-05T20:57:03.837Z,98573.44
2024-01-05T21:02:05.761Z,98622.78
2024-01-05T21:07:07.768Z,98599.41
2024-01-05T21:12:10.433Z,98564.78
2024-01-05T21:17:12.149Z,98650.00
2024-01-05T21:22:13.778Z,98539.28
2024-01-05T21:27:16.018Z,98532.91
2024-01-05T21:32:20.679Z,98563.47
2024-01-05T21:37:23.026Z,98661.69
2024-01-05T21:42:24.730Z,98688.00
2024-01-05T21:47:28.083Z,98602.09
2024-01-05T21:52:29.765Z,98569.06
2024-01-05T21:57:32.863Z,98695.69
2024-01-05T22:02:35.284Z,98627.19
2024-01-05T22:07:38.190Z,98671.03
2024-01-05T22:12:39.883Z,98691.44
2024-01-05T22:17:41.703Z,98604.97
2024-01-05T22:22:43.409Z,98553.63
2024-01-05T22:27:46.285Z,98561.84
2024-01-05T22:32:47.962Z,98561.22
2024-01-05T22:37:49.664Z,98497.09
2024-01-05T22:42:51.439Z,98544.75
2024-01-05T22:47:53.408Z,98538.28
2024-01-05T22:52:55.124Z,98589.56
2024-01-05T22:57:56.728Z,98515.19
2024-01-05T23:02:58.426Z,98686.97
2024-01-05T23:08:00.169Z,98543.00
2024-01-05T23:13:02.953Z,98542.75
2024-01-05T23:18:05.950Z,98649.97
2024-01-05T23:23:07.951Z,98633.38
2024-01-05T23:28:09.644Z,98582.81
2024-01-05T23:33:11.834Z,98609.50
2024-01-05T23:38:13.706Z,98583.63
2024-01-05T23:43:15.385Z,98566.00
2024-01-05T23:48:17.186Z,98685.00
2024-01-05T23:53:19.152Z,98645.28
2024-01-05T23:58:20.826Z,98574.94
